createdAt,value
2018-08-18T00:00:29.705Z,21.5
2018-08-18T00:01:29.648Z,21.5
2018-08-18T00:02:29.778Z,21.44
2018-08-18T00:03:29.660Z,21.5
2018-08-18T00:04:29.669Z,21.37
2018-08-18T00:05:29.842Z,21.37
2018-08-18T00:06:29.603Z,21.25
2018-08-18T00:07:29.758Z,21.25
2018-08-18T00:08:29.639Z,21.25
2018-08-18T00:09:29.827Z,21.12
2018-08-18T00:10:29.969Z,21.12
2018-08-18T00:11:29.691Z,21.12
2018-08-18T00:12:29.655Z,21.06
2018-08-18T00:13:29.805Z,21
2018-08-18T00:14:29.907Z,21
2018-08-18T00:15:29.624Z,20.94
2018-08-18T00:16:30.534Z,20.88
2018-08-18T00:17:29.729Z,20.88
2018-08-18T00:18:29.640Z,20.75
2018-08-18T00:19:29.715Z,20.81
2018-08-18T00:20:29.701Z,20.75
2018-08-18T00:21:29.767Z,20.75
2018-08-18T00:22:29.782Z,20.75
2018-08-18T00:23:29.687Z,20.75
2018-08-18T00:24:29.676Z,20.75
2018-08-18T00:25:29.647Z,20.81
2018-08-18T00:26:29.680Z,20.75
2018-08-18T00:27:29.639Z,20.69
2018-08-18T00:28:29.713Z,20.62
2018-08-18T00:29:29.653Z,20.62
2018-08-18T00:30:29.672Z,20.62
2018-08-18T00:31:29.779Z,20.62
2018-08-18T00:32:29.694Z,20.69
2018-08-18T00:33:29.674Z,20.69
2018-08-18T00:34:29.734Z,20.69
2018-08-18T00:35:29.680Z,20.69
2018-08-18T00:36:29.703Z,20.69
2018-08-18T00:37:29.719Z,20.69
2018-08-18T00:38:29.662Z,20.69
2018-08-18T00:39:29.684Z,20.62
2018-08-18T00:40:29.639Z,20.56
2018-08-18T00:41:29.852Z,20.56
2018-08-18T00:42:29.805Z,20.62
2018-08-18T00:43:29.740Z,20.69
2018-08-18T00:44:29.654Z,20.56
2018-08-18T00:45:29.723Z,20.56
2018-08-18T00:46:29.694Z,20.62
2018-08-18T00:47:29.688Z,20.56
2018-08-18T00:48:29.678Z,20.56
2018-08-18T00:49:29.760Z,20.62
2018-08-18T00:50:30.032Z,20.62
2018-08-18T00:51:29.854Z,20.62
2018-08-18T00:52:29.673Z,20.69
2018-08-18T00:53:29.872Z,20.62
2018-08-18T00:54:29.718Z,20.56
2018-08-18T00:55:29.738Z,20.56
2018-08-18T00:56:29.902Z,20.5
2018-08-18T00:57:29.901Z,20.44
2018-08-18T00:58:29.736Z,20.37
2018-08-18T00:59:29.749Z,20.37
2018-08-18T01:00:29.733Z,20.31
2018-08-18T01:01:29.647Z,20.31
2018-08-18T01:02:29.740Z,20.31
2018-08-18T01:03:29.742Z,20.31
2018-08-18T01:04:30.569Z,20.31
2018-08-18T01:05:29.847Z,20.31
2018-08-18T01:06:29.760Z,20.37
2018-08-18T01:07:29.841Z,20.37
2018-08-18T01:08:29.712Z,20.44
2018-08-18T01:09:30.409Z,20.44
2018-08-18T01:10:29.797Z,20.44
2018-08-18T01:11:31.401Z,20.44
2018-08-18T01:12:31.946Z,20.5
2018-08-18T01:13:29.826Z,20.56
2018-08-18T01:14:31.093Z,20.5
2018-08-18T01:15:30.218Z,20.5
2018-08-18T01:16:29.758Z,20.5
2018-08-18T01:17:29.873Z,20.5
2018-08-18T01:18:29.952Z,20.44
2018-08-18T01:19:29.861Z,20.37
2018-08-18T01:20:29.825Z,20.44
2018-08-18T01:21:30.732Z,20.44
2018-08-18T01:22:30.081Z,20.37
2018-08-18T01:23:29.944Z,20.44
2018-08-18T01:24:29.822Z,20.37
2018-08-18T01:25:30.097Z,20.37
2018-08-18T01:26:29.749Z,20.37
2018-08-18T01:27:29.767Z,20.37
2018-08-18T01:28:29.798Z,20.37
2018-08-18T01:29:29.791Z,20.37
2018-08-18T01:30:29.759Z,20.37
2018-08-18T01:31:29.729Z,20.44
2018-08-18T01:32:29.767Z,20.44
2018-08-18T01:33:29.702Z,20.44
2018-08-18T01:34:29.965Z,20.44
2018-08-18T01:35:29.896Z,20.5
2018-08-18T01:36:29.754Z,20.5
2018-08-18T01:37:29.791Z,20.5
2018-08-18T01:38:29.752Z,20.5
2018-08-18T01:39:29.971Z,20.5
2018-08-18T01:40:29.844Z,20.5
2018-08-18T01:41:30.536Z,20.56
2018-08-18T01:42:29.895Z,20.56
2018-08-18T01:43:29.869Z,20.56
2018-08-18T01:44:29.742Z,20.62
2018-08-18T01:45:29.759Z,20.62
2018-08-18T01:46:29.795Z,20.62
2018-08-18T01:47:29.772Z,20.62
2018-08-18T01:48:29.796Z,20.62
2018-08-18T01:49:29.803Z,20.56
2018-08-18T01:50:29.718Z,20.56
2018-08-18T01:51:29.757Z,20.56
2018-08-18T01:52:29.785Z,20.56
2018-08-18T01:53:29.739Z,20.56
2018-08-18T01:54:29.860Z,20.56
2018-08-18T01:55:29.746Z,20.56
2018-08-18T01:56:29.787Z,20.56
2018-08-18T01:57:29.766Z,20.56
2018-08-18T01:58:29.724Z,20.62
2018-08-18T01:59:29.760Z,20.62
2018-08-18T02:00:29.766Z,20.62
2018-08-18T02:01:29.806Z,20.62
2018-08-18T02:02:29.803Z,20.62
2018-08-18T02:03:29.754Z,20.62
2018-08-18T02:04:29.771Z,20.62
2018-08-18T02:05:29.753Z,20.62
2018-08-18T02:06:29.780Z,20.62
2018-08-18T02:07:29.762Z,20.62
2018-08-18T02:08:29.838Z,20.56
2018-08-18T02:09:29.793Z,20.56
2018-08-18T02:10:29.740Z,20.56
2018-08-18T02:11:29.754Z,20.56
2018-08-18T02:12:29.894Z,20.56
2018-08-18T02:13:29.794Z,20.5
2018-08-18T02:14:29.839Z,20.56
2018-08-18T02:15:29.860Z,20.5
2018-08-18T02:16:29.996Z,20.5
2018-08-18T02:17:29.956Z,20.5
2018-08-18T02:18:30.288Z,20.44
2018-08-18T02:19:29.777Z,20.44
2018-08-18T02:20:29.779Z,20.44
2018-08-18T02:21:29.900Z,20.44
2018-08-18T02:22:29.848Z,20.44
2018-08-18T02:23:29.843Z,20.44
2018-08-18T02:24:29.778Z,20.44
2018-08-18T02:25:29.813Z,20.44
2018-08-18T02:26:29.852Z,20.44
2018-08-18T02:27:29.838Z,20.44
2018-08-18T02:28:31.676Z,20.37
2018-08-18T02:29:30.054Z,20.37
2018-08-18T02:30:29.881Z,20.37
2018-08-18T02:31:29.799Z,20.37
2018-08-18T02:32:29.846Z,20.37
2018-08-18T02:33:29.877Z,20.37
2018-08-18T02:34:29.913Z,20.31
2018-08-18T02:35:29.837Z,20.31
2018-08-18T02:36:29.827Z,20.31
2018-08-18T02:37:29.861Z,20.31
2018-08-18T02:38:29.812Z,20.31
2018-08-18T02:39:29.804Z,20.31
2018-08-18T02:40:30.095Z,20.31
2018-08-18T02:41:29.818Z,20.31
2018-08-18T02:42:29.835Z,20.25
2018-08-18T02:43:30.048Z,20.25
2018-08-18T02:44:30.034Z,20.25
2018-08-18T02:45:31.086Z,20.19
2018-08-18T02:46:29.888Z,20.19
2018-08-18T02:47:29.946Z,20.19
2018-08-18T02:48:29.899Z,20.12
2018-08-18T02:49:29.869Z,20.12
2018-08-18T02:50:30.019Z,20.06
2018-08-18T02:51:29.890Z,20.06
2018-08-18T02:52:29.838Z,19.87
2018-08-18T02:53:29.927Z,19.87
2018-08-18T02:54:29.898Z,19.87
2018-08-18T02:55:30.889Z,19.81
2018-08-18T02:56:30.017Z,19.87
2018-08-18T02:57:29.875Z,19.87
2018-08-18T02:58:29.837Z,19.81
2018-08-18T02:59:29.837Z,19.87
2018-08-18T03:00:30.582Z,19.81
2018-08-18T03:01:29.837Z,19.87
2018-08-18T03:02:30.183Z,19.87
2018-08-18T03:03:29.810Z,19.81
2018-08-18T03:04:29.843Z,19.81
2018-08-18T03:05:29.966Z,19.87
2018-08-18T03:06:29.833Z,19.81
2018-08-18T03:07:29.911Z,19.81
2018-08-18T03:08:29.881Z,19.81
2018-08-18T03:09:30.967Z,19.75
2018-08-18T03:10:29.938Z,19.75
2018-08-18T03:11:29.906Z,19.69
2018-08-18T03:12:29.866Z,19.75
2018-08-18T03:13:30.598Z,19.75
2018-08-18T03:14:29.899Z,19.69
2018-08-18T03:15:29.871Z,19.75
2018-08-18T03:16:29.822Z,19.69
2018-08-18T03:17:29.872Z,19.75
2018-08-18T03:18:29.877Z,19.75
2018-08-18T03:19:29.863Z,19.75
2018-08-18T03:20:29.841Z,19.75
2018-08-18T03:21:29.849Z,19.75
2018-08-18T03:22:29.852Z,19.69
2018-08-18T03:23:29.828Z,19.75
2018-08-18T03:24:29.833Z,19.69
2018-08-18T03:25:29.857Z,19.75
2018-08-18T03:26:29.986Z,19.69
2018-08-18T03:27:30.138Z,19.69
2018-08-18T03:28:29.974Z,19.75
2018-08-18T03:29:29.877Z,19.69
2018-08-18T03:30:30.181Z,19.69
2018-08-18T03:31:29.902Z,19.69
2018-08-18T03:32:29.887Z,19.69
2018-08-18T03:33:29.898Z,19.69
2018-08-18T03:34:29.999Z,19.69
2018-08-18T03:35:29.988Z,19.69
2018-08-18T03:36:29.970Z,19.69
2018-08-18T03:37:29.883Z,19.69
2018-08-18T03:38:30.241Z,19.69
2018-08-18T03:39:29.963Z,19.75
2018-08-18T03:40:30.075Z,19.69
2018-08-18T03:41:30.121Z,19.69
2018-08-18T03:42:30.443Z,19.69
2018-08-18T03:43:30.084Z,19.69
2018-08-18T03:44:29.967Z,19.69
2018-08-18T03:45:29.859Z,19.69
2018-08-18T03:46:30.060Z,19.69
2018-08-18T03:47:30.552Z,19.69
2018-08-18T03:48:29.931Z,19.69
2018-08-18T03:49:29.901Z,19.69
2018-08-18T03:50:29.883Z,19.69
2018-08-18T03:51:29.859Z,19.69
2018-08-18T03:52:30.604Z,19.69
2018-08-18T03:53:29.999Z,19.69
2018-08-18T03:54:29.969Z,19.69
2018-08-18T03:55:30.153Z,19.69
2018-08-18T03:56:30.186Z,19.69
2018-08-18T03:57:30.021Z,19.69
2018-08-18T03:58:29.921Z,19.69
2018-08-18T03:59:30.578Z,19.69
2018-08-18T04:00:29.922Z,19.69
2018-08-18T04:01:30.237Z,19.62
2018-08-18T04:02:30.329Z,19.69
2018-08-18T04:03:29.912Z,19.69
2018-08-18T04:04:29.959Z,19.62
2018-08-18T04:05:30.376Z,19.62
2018-08-18T04:06:29.969Z,19.62
2018-08-18T04:07:29.970Z,19.62
2018-08-18T04:08:30.092Z,19.62
2018-08-18T04:09:29.909Z,19.56
2018-08-18T04:10:30.000Z,19.62
2018-08-18T04:11:29.956Z,19.56
2018-08-18T04:12:29.902Z,19.44
2018-08-18T04:13:29.911Z,19.5
2018-08-18T04:14:30.101Z,19.44
2018-08-18T04:15:29.993Z,19.37
2018-08-18T04:16:30.239Z,19.37
2018-08-18T04:17:30.324Z,19.37
2018-08-18T04:18:30.249Z,19.37
2018-08-18T04:19:30.098Z,19.37
2018-08-18T04:20:30.073Z,19.37
2018-08-18T04:21:30.069Z,19.37
2018-08-18T04:22:29.922Z,19.37
2018-08-18T04:23:30.434Z,19.37
2018-08-18T04:24:29.951Z,19.31
2018-08-18T04:25:30.252Z,19.31
2018-08-18T04:26:30.368Z,19.31
2018-08-18T04:27:29.962Z,19.25
2018-08-18T04:28:29.957Z,19.31
2018-08-18T04:29:29.908Z,19.31
2018-08-18T04:30:29.889Z,19.31
2018-08-18T04:31:30.095Z,19.31
2018-08-18T04:32:29.975Z,19.31
2018-08-18T04:33:29.981Z,19.31
2018-08-18T04:34:30.069Z,19.31
2018-08-18T04:35:30.400Z,19.25
2018-08-18T04:36:30.001Z,19.25
2018-08-18T04:37:30.068Z,19.25
2018-08-18T04:38:30.020Z,19.25
2018-08-18T04:39:30.026Z,19.31
2018-08-18T04:40:29.973Z,19.25
2018-08-18T04:41:30.127Z,19.31
2018-08-18T04:42:29.972Z,19.31
2018-08-18T04:43:29.969Z,19.25
2018-08-18T04:44:29.999Z,19.25
2018-08-18T04:45:30.035Z,19.19
2018-08-18T04:46:30.014Z,19.12
2018-08-18T04:47:30.053Z,19.06
2018-08-18T04:48:30.112Z,19.06
2018-08-18T04:49:30.056Z,19.06
2018-08-18T04:50:31.100Z,19
2018-08-18T04:51:30.075Z,18.94
2018-08-18T04:52:30.437Z,18.94
2018-08-18T04:53:29.938Z,18.87
2018-08-18T04:54:30.260Z,18.87
2018-08-18T04:55:30.145Z,18.87
2018-08-18T04:56:30.220Z,18.87
2018-08-18T04:57:30.125Z,18.87
2018-08-18T04:58:29.955Z,18.87
2018-08-18T04:59:31.313Z,18.87
2018-08-18T05:00:29.992Z,18.87
2018-08-18T05:01:29.935Z,18.87
2018-08-18T05:02:30.105Z,18.94
2018-08-18T05:03:31.085Z,18.94
2018-08-18T05:04:29.986Z,18.94
2018-08-18T05:05:29.992Z,18.94
2018-08-18T05:06:30.030Z,18.94
2018-08-18T05:07:37.144Z,18.94
2018-08-18T05:08:30.790Z,19
2018-08-18T05:09:30.294Z,18.94
2018-08-18T05:10:30.105Z,18.94
2018-08-18T05:11:30.212Z,18.94
2018-08-18T05:12:30.099Z,19
2018-08-18T05:13:30.117Z,19
2018-08-18T05:14:30.229Z,19
2018-08-18T05:15:30.096Z,19.06
2018-08-18T05:16:30.015Z,19
2018-08-18T05:17:30.251Z,18.94
2018-08-18T05:18:30.098Z,18.87
2018-08-18T05:19:29.983Z,18.87
2018-08-18T05:20:30.199Z,18.87
2018-08-18T05:21:29.981Z,18.94
2018-08-18T05:22:30.118Z,18.94
2018-08-18T05:23:30.860Z,18.94
2018-08-18T05:24:30.175Z,18.94
2018-08-18T05:25:30.037Z,19
2018-08-18T05:26:30.088Z,19
2018-08-18T05:27:30.018Z,19
2018-08-18T05:28:30.154Z,19
2018-08-18T05:29:30.038Z,19.06
2018-08-18T05:30:30.154Z,19
2018-08-18T05:31:30.185Z,19.06
2018-08-18T05:32:30.054Z,19
2018-08-18T05:33:30.173Z,19.06
2018-08-18T05:34:30.041Z,19.06
2018-08-18T05:35:30.145Z,19
2018-08-18T05:36:30.722Z,19.06
2018-08-18T05:37:30.202Z,19.06
2018-08-18T05:38:30.146Z,19.06
2018-08-18T05:39:30.094Z,19.12
2018-08-18T05:40:30.024Z,19.06
2018-08-18T05:41:30.169Z,19.06
2018-08-18T05:42:30.181Z,19.12
2018-08-18T05:43:30.289Z,19.12
2018-08-18T05:44:30.097Z,19.12
2018-08-18T05:45:30.010Z,19.19
2018-08-18T05:46:30.040Z,19.19
2018-08-18T05:47:30.339Z,19.25
2018-08-18T05:48:30.037Z,19.25
2018-08-18T05:49:30.008Z,19.19
2018-08-18T05:50:30.068Z,19.25
2018-08-18T05:51:30.101Z,19.19
2018-08-18T05:52:30.039Z,19.25
2018-08-18T05:53:29.996Z,19.19
2018-08-18T05:54:30.056Z,19.19
2018-08-18T05:55:30.076Z,19.19
2018-08-18T05:56:30.018Z,19.12
2018-08-18T05:57:30.104Z,19.19
2018-08-18T05:58:30.064Z,19.19
2018-08-18T05:59:30.028Z,19.19
2018-08-18T06:00:30.020Z,19.19
2018-08-18T06:01:30.051Z,19.25
2018-08-18T06:02:30.029Z,19.19
2018-08-18T06:03:30.127Z,19.25
2018-08-18T06:04:30.047Z,19.25
2018-08-18T06:05:30.097Z,19.31
2018-08-18T06:06:30.071Z,19.25
2018-08-18T06:07:30.066Z,19.12
2018-08-18T06:08:30.125Z,19.19
2018-08-18T06:09:30.109Z,19.19
2018-08-18T06:10:30.040Z,19.25
2018-08-18T06:11:30.062Z,19.25
2018-08-18T06:12:30.059Z,19.19
2018-08-18T06:13:30.160Z,19.25
2018-08-18T06:14:30.107Z,19.31
2018-08-18T06:15:30.076Z,19.31
2018-08-18T06:16:30.060Z,19.37
2018-08-18T06:17:30.283Z,19.37
2018-08-18T06:18:30.137Z,19.44
2018-08-18T06:19:30.189Z,19.5
2018-08-18T06:20:30.205Z,19.5
2018-08-18T06:21:30.076Z,19.5
2018-08-18T06:22:30.063Z,19.5
2018-08-18T06:23:30.054Z,19.5
2018-08-18T06:24:30.044Z,19.44
2018-08-18T06:25:30.084Z,19.44
2018-08-18T06:26:30.110Z,19.5
2018-08-18T06:27:30.138Z,19.5
2018-08-18T06:28:30.109Z,19.5
2018-08-18T06:29:30.084Z,19.56
2018-08-18T06:30:30.078Z,19.5
2018-08-18T06:31:30.024Z,19.5
2018-08-18T06:32:30.194Z,19.5
2018-08-18T06:33:30.295Z,19.5
2018-08-18T06:34:30.530Z,19.56
2018-08-18T06:35:30.089Z,19.56
2018-08-18T06:36:30.103Z,19.56
2018-08-18T06:37:30.141Z,19.56
2018-08-18T06:38:30.100Z,19.56
2018-08-18T06:39:30.235Z,19.69
2018-08-18T06:40:30.103Z,19.69
2018-08-18T06:41:30.707Z,19.69
2018-08-18T06:42:30.105Z,19.75
2018-08-18T06:43:30.303Z,19.75
2018-08-18T06:44:30.093Z,19.75
2018-08-18T06:45:30.159Z,19.81
2018-08-18T06:46:30.152Z,19.81
2018-08-18T06:47:30.256Z,19.87
2018-08-18T06:48:30.161Z,19.87
2018-08-18T06:49:30.222Z,19.87
2018-08-18T06:50:30.145Z,19.94
2018-08-18T06:51:30.194Z,19.94
2018-08-18T06:52:30.330Z,19.94
2018-08-18T06:53:30.104Z,19.87
2018-08-18T06:54:31.406Z,19.94
2018-08-18T06:55:30.188Z,20
2018-08-18T06:56:30.114Z,20
2018-08-18T06:57:30.260Z,20
2018-08-18T06:58:30.137Z,20.06
2018-08-18T06:59:30.290Z,20.06
2018-08-18T07:00:30.160Z,20.12
2018-08-18T07:01:30.091Z,20.12
2018-08-18T07:02:30.134Z,20.12
2018-08-18T07:03:30.107Z,20.12
2018-08-18T07:04:30.180Z,20.19
2018-08-18T07:05:30.133Z,20.19
2018-08-18T07:06:30.140Z,20.25
2018-08-18T07:07:30.104Z,20.25
2018-08-18T07:08:31.092Z,20.31
2018-08-18T07:09:30.137Z,20.31
2018-08-18T07:10:30.117Z,20.31
2018-08-18T07:11:30.209Z,20.31
2018-08-18T07:12:30.099Z,20.37
2018-08-18T07:13:30.148Z,20.37
2018-08-18T07:14:30.161Z,20.37
2018-08-18T07:15:30.123Z,20.44
2018-08-18T07:16:30.106Z,20.44
2018-08-18T07:17:30.165Z,20.5
2018-08-18T07:18:30.201Z,20.5
2018-08-18T07:19:31.252Z,20.5
2018-08-18T07:20:30.103Z,20.5
2018-08-18T07:21:30.129Z,20.56
2018-08-18T07:22:30.139Z,20.56
2018-08-18T07:23:30.133Z,20.62
2018-08-18T07:24:30.136Z,20.62
2018-08-18T07:25:30.177Z,20.62
2018-08-18T07:26:30.154Z,20.69
2018-08-18T07:27:30.167Z,20.69
2018-08-18T07:28:30.734Z,20.69
2018-08-18T07:29:30.314Z,20.75
2018-08-18T07:30:30.170Z,20.88
2018-08-18T07:31:30.168Z,20.81
2018-08-18T07:32:30.167Z,20.88
2018-08-18T07:33:30.191Z,20.88
2018-08-18T07:34:30.149Z,20.81
2018-08-18T07:35:30.285Z,20.88
2018-08-18T07:36:30.171Z,20.81
2018-08-18T07:37:30.962Z,20.88
2018-08-18T07:38:30.156Z,20.88
2018-08-18T07:39:30.182Z,20.94
2018-08-18T07:40:30.127Z,21
2018-08-18T07:41:30.542Z,21.06
2018-08-18T07:42:30.174Z,21.06
2018-08-18T07:43:30.211Z,21.06
2018-08-18T07:44:30.150Z,21.06
2018-08-18T07:45:30.144Z,21.06
2018-08-18T07:46:30.790Z,21.12
2018-08-18T07:47:30.210Z,21.12
2018-08-18T07:48:30.223Z,21.19
2018-08-18T07:49:30.185Z,21.19
2018-08-18T07:50:30.373Z,21.12
2018-08-18T07:51:30.186Z,21.19
2018-08-18T07:52:30.193Z,21.25
2018-08-18T07:53:31.146Z,21.12
2018-08-18T07:54:30.208Z,21.19
2018-08-18T07:55:30.211Z,21.19
2018-08-18T07:56:30.218Z,21.25
2018-08-18T07:57:30.237Z,21.31
2018-08-18T07:58:30.297Z,21.37
2018-08-18T07:59:30.205Z,21.37
2018-08-18T08:00:30.217Z,21.44
2018-08-18T08:01:30.416Z,21.44
2018-08-18T08:02:30.215Z,21.44
2018-08-18T08:03:30.280Z,21.5
2018-08-18T08:04:30.210Z,21.5
2018-08-18T08:05:30.600Z,21.56
2018-08-18T08:06:30.229Z,21.56
2018-08-18T08:07:30.340Z,21.62
2018-08-18T08:08:30.460Z,21.62
2018-08-18T08:09:30.165Z,21.62
2018-08-18T08:10:30.228Z,21.62
2018-08-18T08:11:30.182Z,21.62
2018-08-18T08:12:31.352Z,21.69
2018-08-18T08:13:30.195Z,21.62
2018-08-18T08:14:30.322Z,21.62
2018-08-18T08:15:30.208Z,21.69
2018-08-18T08:16:30.222Z,21.69
2018-08-18T08:17:30.224Z,21.69
2018-08-18T08:18:30.278Z,21.81
2018-08-18T08:19:30.229Z,21.81
2018-08-18T08:20:30.288Z,21.87
2018-08-18T08:21:30.211Z,21.81
2018-08-18T08:22:30.266Z,21.87
2018-08-18T08:23:30.341Z,22
2018-08-18T08:24:30.282Z,22
2018-08-18T08:25:30.236Z,22.06
2018-08-18T08:26:30.323Z,22.13
2018-08-18T08:27:30.240Z,22.13
2018-08-18T08:28:30.293Z,22.13
2018-08-18T08:29:30.486Z,22.19
2018-08-18T08:30:30.197Z,22.25
2018-08-18T08:31:30.253Z,22.25
2018-08-18T08:32:30.187Z,22.25
2018-08-18T08:33:30.203Z,22.31
2018-08-18T08:34:30.210Z,22.25
2018-08-18T08:35:30.478Z,22.25
2018-08-18T08:36:30.225Z,22.19
2018-08-18T08:37:30.205Z,22.25
2018-08-18T08:38:30.252Z,22.25
2018-08-18T08:39:30.233Z,22.31
2018-08-18T08:40:30.280Z,22.37
2018-08-18T08:41:30.224Z,22.31
2018-08-18T08:42:30.228Z,22.37
2018-08-18T08:43:30.276Z,22.44
2018-08-18T08:44:30.539Z,22.44
2018-08-18T08:45:30.210Z,22.5
2018-08-18T08:46:30.212Z,22.56
2018-08-18T08:47:30.253Z,22.5
2018-08-18T08:48:30.373Z,22.56
2018-08-18T08:49:30.250Z,22.62
2018-08-18T08:50:30.333Z,22.62
2018-08-18T08:51:30.355Z,22.69
2018-08-18T08:52:30.239Z,22.69
2018-08-18T08:53:30.246Z,22.69
2018-08-18T08:54:30.295Z,22.69
2018-08-18T08:55:30.261Z,22.75
2018-08-18T08:56:30.305Z,22.75
2018-08-18T08:57:30.238Z,22.75
2018-08-18T08:58:30.323Z,22.75
2018-08-18T08:59:30.351Z,22.87
2018-08-18T09:00:30.253Z,22.94
2018-08-18T09:01:30.213Z,22.94
2018-08-18T09:02:30.230Z,23
2018-08-18T09:03:30.234Z,23
2018-08-18T09:04:30.383Z,23
2018-08-18T09:05:30.233Z,23
2018-08-18T09:06:30.248Z,23.06
2018-08-18T09:07:30.384Z,23.06
2018-08-18T09:08:30.247Z,23
2018-08-18T09:09:30.322Z,23
2018-08-18T09:10:30.339Z,23.06
2018-08-18T09:11:30.268Z,23
2018-08-18T09:12:30.250Z,23.06
2018-08-18T09:13:30.316Z,23
2018-08-18T09:14:30.319Z,23.06
2018-08-18T09:15:30.523Z,23.06
2018-08-18T09:16:30.409Z,23.12
2018-08-18T09:17:30.333Z,23.12
2018-08-18T09:18:30.229Z,23.19
2018-08-18T09:19:30.324Z,23.19
2018-08-18T09:20:30.966Z,23.31
2018-08-18T09:21:30.560Z,23.31
2018-08-18T09:22:30.305Z,23.31
2018-08-18T09:23:30.390Z,23.38
2018-08-18T09:24:30.377Z,23.44
2018-08-18T09:25:30.564Z,23.38
2018-08-18T09:26:31.186Z,23.38
2018-08-18T09:27:30.464Z,23.44
2018-08-18T09:28:30.296Z,23.44
2018-08-18T09:29:30.304Z,23.5
2018-08-18T09:30:30.487Z,23.44
2018-08-18T09:31:30.404Z,23.5
2018-08-18T09:32:30.349Z,23.5
2018-08-18T09:33:30.329Z,23.56
2018-08-18T09:34:30.611Z,23.62
2018-08-18T09:35:30.481Z,23.69
2018-08-18T09:36:30.343Z,23.69
2018-08-18T09:37:30.327Z,23.69
2018-08-18T09:38:30.454Z,23.69
2018-08-18T09:39:30.358Z,23.69
2018-08-18T09:40:30.401Z,23.81
2018-08-18T09:41:30.394Z,23.87
2018-08-18T09:42:30.374Z,23.81
2018-08-18T09:43:30.356Z,23.75
2018-08-18T09:44:30.394Z,23.75
2018-08-18T09:45:31.912Z,23.75
2018-08-18T09:46:38.710Z,23.75
2018-08-18T09:47:31.176Z,23.75
2018-08-18T09:48:30.351Z,23.81
2018-08-18T09:49:30.557Z,23.81
2018-08-18T09:50:30.319Z,23.87
2018-08-18T09:51:30.338Z,23.94
2018-08-18T09:52:30.345Z,24
2018-08-18T09:53:30.526Z,24.06
2018-08-18T09:54:30.331Z,24.06
2018-08-18T09:55:30.338Z,24.06
2018-08-18T09:56:30.352Z,23.94
2018-08-18T09:57:30.357Z,23.94
2018-08-18T09:58:30.395Z,24
2018-08-18T09:59:30.605Z,24.06
2018-08-18T10:00:30.405Z,24.06
2018-08-18T10:01:30.342Z,24
2018-08-18T10:02:30.724Z,24.06
2018-08-18T10:03:30.339Z,24.06
2018-08-18T10:04:30.407Z,24.12
2018-08-18T10:05:30.426Z,24.19
2018-08-18T10:06:30.984Z,24.12
2018-08-18T10:07:30.388Z,24.19
2018-08-18T10:08:30.327Z,24.25
2018-08-18T10:09:30.635Z,24.37
2018-08-18T10:10:30.332Z,24.31
2018-08-18T10:11:30.379Z,24.37
2018-08-18T10:12:30.343Z,24.44
2018-08-18T10:13:30.317Z,24.44
2018-08-18T10:14:30.504Z,24.5
2018-08-18T10:15:30.379Z,24.44
2018-08-18T10:16:30.388Z,24.56
2018-08-18T10:17:30.474Z,24.5
2018-08-18T10:18:30.370Z,24.5
2018-08-18T10:19:30.637Z,24.44
2018-08-18T10:20:31.268Z,24.63
2018-08-18T10:21:31.508Z,24.69
2018-08-18T10:22:30.492Z,24.69
2018-08-18T10:23:30.358Z,24.75
2018-08-18T10:24:31.758Z,24.69
2018-08-18T10:25:32.313Z,24.81
2018-08-18T10:26:30.391Z,24.75
2018-08-18T10:27:30.390Z,24.75
2018-08-18T10:28:30.469Z,24.75
2018-08-18T10:29:30.524Z,24.63
2018-08-18T10:30:30.437Z,24.69
2018-08-18T10:31:30.662Z,24.69
2018-08-18T10:32:30.590Z,24.81
2018-08-18T10:33:30.441Z,24.87
2018-08-18T10:34:30.540Z,24.94
2018-08-18T10:35:30.416Z,24.94
2018-08-18T10:36:30.622Z,25
2018-08-18T10:37:30.507Z,25
2018-08-18T10:38:30.392Z,25
2018-08-18T10:39:30.618Z,25
2018-08-18T10:40:30.510Z,25.12
2018-08-18T10:41:30.536Z,25.12
2018-08-18T10:42:30.594Z,25.19
2018-08-18T10:43:30.401Z,25.25
2018-08-18T10:44:30.616Z,25.37
2018-08-18T10:45:30.451Z,25.37
2018-08-18T10:46:30.496Z,25.37
2018-08-18T10:47:30.721Z,25.37
2018-08-18T10:48:30.507Z,25.5
2018-08-18T10:49:30.506Z,25.56
2018-08-18T10:50:30.498Z,25.69
2018-08-18T10:51:31.008Z,25.62
2018-08-18T10:52:30.426Z,25.56
2018-08-18T10:53:30.543Z,25.56
2018-08-18T10:54:30.579Z,25.56
2018-08-18T10:55:30.556Z,25.62
2018-08-18T10:56:30.460Z,25.69
2018-08-18T10:57:30.670Z,25.75
2018-08-18T10:58:30.840Z,25.75
2018-08-18T10:59:30.584Z,25.75
2018-08-18T11:00:30.590Z,25.75
2018-08-18T11:01:30.587Z,25.81
2018-08-18T11:02:31.252Z,25.81
2018-08-18T11:03:30.495Z,25.75
2018-08-18T11:04:34.100Z,25.75
2018-08-18T11:05:30.427Z,25.75
2018-08-18T11:06:30.680Z,25.81
2018-08-18T11:07:30.530Z,25.88
2018-08-18T11:08:30.731Z,25.94
2018-08-18T11:09:30.493Z,26
2018-08-18T11:10:30.558Z,26.06
2018-08-18T11:11:30.669Z,25.94
2018-08-18T11:12:30.428Z,25.94
2018-08-18T11:13:30.574Z,25.94
2018-08-18T11:14:30.587Z,25.94
2018-08-18T11:15:30.585Z,25.94
2018-08-18T11:16:30.597Z,25.81
2018-08-18T11:17:30.503Z,25.88
2018-08-18T11:18:33.405Z,25.94
2018-08-18T11:19:30.414Z,26
2018-08-18T11:20:30.670Z,26
2018-08-18T11:21:30.609Z,26
2018-08-18T11:22:30.572Z,26
2018-08-18T11:23:30.641Z,26
2018-08-18T11:24:30.636Z,26
2018-08-18T11:25:30.478Z,26.12
2018-08-18T11:26:30.535Z,26.19
2018-08-18T11:27:30.650Z,26.19
2018-08-18T11:28:31.688Z,26.25
2018-08-18T11:29:30.451Z,26.25
2018-08-18T11:30:31.312Z,26.25
2018-08-18T11:31:30.585Z,26.31
2018-08-18T11:32:30.529Z,26.37
2018-08-18T11:33:34.214Z,26.37
2018-08-18T11:34:30.483Z,26.37
2018-08-18T11:35:31.755Z,26.37
2018-08-18T11:36:30.435Z,26.37
2018-08-18T11:37:30.745Z,26.44
2018-08-18T11:38:30.643Z,26.44
2018-08-18T11:39:30.459Z,26.44
2018-08-18T11:40:30.557Z,26.56
2018-08-18T11:41:31.012Z,26.56
2018-08-18T11:42:30.523Z,26.56
2018-08-18T11:43:30.459Z,26.56
2018-08-18T11:44:30.560Z,26.56
2018-08-18T11:45:30.488Z,26.56
2018-08-18T11:46:30.455Z,26.56
2018-08-18T11:47:30.855Z,26.62
2018-08-18T11:48:30.524Z,26.62
2018-08-18T11:49:30.467Z,26.69
2018-08-18T11:50:30.730Z,26.69
2018-08-18T11:51:30.488Z,26.62
2018-08-18T11:52:30.636Z,26.5
2018-08-18T11:53:30.654Z,26.56
2018-08-18T11:54:30.465Z,26.56
2018-08-18T11:55:30.621Z,26.62
2018-08-18T11:56:30.758Z,26.62
2018-08-18T11:57:30.472Z,26.87
2018-08-18T11:58:30.610Z,26.87
2018-08-18T11:59:31.452Z,27.06
2018-08-18T12:00:30.549Z,27.06
2018-08-18T12:01:30.464Z,27.13
2018-08-18T12:02:30.507Z,27.13
2018-08-18T12:03:30.538Z,27.19
2018-08-18T12:04:30.487Z,27.25
2018-08-18T12:05:30.718Z,27.25
2018-08-18T12:06:30.755Z,27.25
2018-08-18T12:07:30.616Z,27.13
2018-08-18T12:08:31.622Z,27.13
2018-08-18T12:09:30.497Z,27.13
2018-08-18T12:10:31.225Z,27.13
2018-08-18T12:11:30.516Z,27.19
2018-08-18T12:12:30.485Z,27.25
2018-08-18T12:13:30.590Z,27.25
2018-08-18T12:14:30.585Z,27.13
2018-08-18T12:15:30.831Z,27.13
2018-08-18T12:16:30.504Z,27.06
2018-08-18T12:17:30.625Z,27.13
2018-08-18T12:18:30.654Z,27.19
2018-08-18T12:19:30.634Z,27.19
2018-08-18T12:20:31.689Z,27.25
2018-08-18T12:21:30.535Z,27.25
2018-08-18T12:22:30.821Z,27
2018-08-18T12:23:30.854Z,27.13
2018-08-18T12:24:30.575Z,27.19
2018-08-18T12:25:30.660Z,27.19
2018-08-18T12:26:30.733Z,27.19
2018-08-18T12:27:30.714Z,27.25
2018-08-18T12:28:31.173Z,27.25
2018-08-18T12:29:31.591Z,27.31
2018-08-18T12:30:30.796Z,27.44
2018-08-18T12:31:30.619Z,27.56
2018-08-18T12:32:32.777Z,27.56
2018-08-18T12:33:30.602Z,27.37
2018-08-18T12:34:30.879Z,27.31
2018-08-18T12:35:30.629Z,27.37
2018-08-18T12:36:31.571Z,27.44
2018-08-18T12:37:32.571Z,27.44
2018-08-18T12:38:30.560Z,27.5
2018-08-18T12:39:30.569Z,27.5
2018-08-18T12:40:30.675Z,27.5
2018-08-18T12:41:30.861Z,27.5
2018-08-18T12:42:30.692Z,27.5
2018-08-18T12:43:31.200Z,27.5
2018-08-18T12:44:30.632Z,27.5
2018-08-18T12:45:30.618Z,27.5
2018-08-18T12:46:30.522Z,27.44
2018-08-18T12:47:30.528Z,27.5
2018-08-18T12:48:30.696Z,27.56
2018-08-18T12:49:30.896Z,27.56
2018-08-18T12:50:30.513Z,27.56
2018-08-18T12:51:30.546Z,27.62
2018-08-18T12:52:30.562Z,27.69
2018-08-18T12:53:30.547Z,27.75
2018-08-18T12:54:30.748Z,27.75
2018-08-18T12:55:30.696Z,27.69
2018-08-18T12:56:30.665Z,27.75
2018-08-18T12:57:30.533Z,27.81
2018-08-18T12:58:32.564Z,27.81